LiveATC.Net - Listen to live air traffic control over the Internet!


ICAO: KHBI  IATA: HBI   Airport: Asheboro Regional Airport
City: Asheboro   State/Province: North Carolina
Country: United States   Continent: North America
KHBI METAR Weather: KHBI 300120Z AUTO 20003KT 10SM -RA SCT026 BKN080 OVC100 19/19 A3007 RMK AO2 P0003 T01900185
KHBI Flight Activity (FlightAware)
KHBI Airport Info   (AirNav) (iFlightPlanner)
KHBI VFR Sectional Chart   (iFlightPlanner) 
KHBI IFR Low Chart   (iFlightPlanner) 
KHBI CTAF/UNICOM
Feed Status: DOWN
Last heard on: 2017-05-29 00:56:03 (1 days 0 hours 38 minutes ago)
KHBI CTAF/UNICOM Audio Archives
FacilityFrequency
Asheboro CTAF/UNICOM122.800

Feed sponsored by: North Carolina Aviation Hall of Fame Museum


NOTICE

Unauthorized use prohibited. See LiveATC.net Terms of Service


Find LiveATC Audio Streams


Airport/ARTCC Code

Frequency Search
(e.g., 124.400, 128.75)
Site-wide search
 


Browse LiveATC Feeds
LiveATC Coverage Map
Top 50 LiveATC Feeds
Bad Weather Areas

LiveATC FAQ
Offer a LiveATC Feed
Contact LiveATC.net
Press Inquiries

LiveATC on iPhone
LiveATC on Android

Windows Phone
Windows 8/10

LiveATC Mobile
(Mobile browser)

ATC Audio Archives
Interesting Recordings

LiveATC Forums


Home Page
About LiveATC.net
Make a Donation
LiveATC Store

Terms of Use
Privacy Policy

Canadian Air Freqs

AIRMETs/SIGMETs

FAA Airport Status
Nat'l Airspace Status
Arrival Demand Charts


Server Software By:
Icecast.org
Liquidsoap